Time;durP1;ratioP1;P1;durP2;ratioP2;P2;SDS_P1;SDS_P2;PMS_P1;PMS_P2;Temp;Humidity;BMP_temperature;BMP_pressure;BME280_temperature;BME280_humidity;BME280_pressure;Samples;Min_cycle;Max_cycle;Signal;HPM_P1;HPM_P2
2022/01/06 00:01:21;;;;;;;5.70;1.38;;;;;;;;;;5099568;28;20032;-78
2022/01/06 00:03:46;;;;;;;1.83;1.00;;;;;;;;;;5098999;28;20100;-79
2022/01/06 00:06:12;;;;;;;1.65;0.93;;;;;;;;;;5098076;28;20496;-78
2022/01/06 00:08:38;;;;;;;2.80;1.20;;;;;;;;;;5098603;28;20469;-78
2022/01/06 00:11:08;;;;;;;1.98;1.30;;;;;;;;;;5098854;28;20024;-78
2022/01/06 00:16:32;;;;;;;2.05;1.15;;;;;;;;;;5099700;28;20439;-77
2022/01/06 00:24:23;;;;;;;2.45;1.23;;;;;;;;;;5099952;28;20159;-79
2022/01/06 00:26:50;;;;;;;2.60;1.20;;;;;;;;;;5098066;28;20044;-78
2022/01/06 00:29:15;;;;;;;3.38;1.70;;;;;;;;;;5099722;28;20024;-80
2022/01/06 00:31:41;;;;;;;4.10;1.42;;;;;;;;;;5098784;28;20107;-80
2022/01/06 00:34:10;;;;;;;2.92;1.80;;;;;;;;;;5099323;28;20024;-79
2022/01/06 00:36:36;;;;;;;3.65;1.40;;;;;;;;;;5099274;28;20032;-80
2022/01/06 00:39:02;;;;;;;3.38;1.55;;;;;;;;;;5097968;28;20035;-78
2022/01/06 00:41:27;;;;;;;3.45;1.50;;;;;;;;;;5098020;28;20023;-79
2022/01/06 00:43:52;;;;;;;4.22;1.35;;;;;;;;;;5099724;28;20027;-78
2022/01/06 00:46:18;;;;;;;2.92;1.50;;;;;;;;;;5098158;28;20024;-78
2022/01/06 00:48:43;;;;;;;5.35;1.27;;;;;;;;;;5099754;28;20020;-79
2022/01/06 00:51:09;;;;;;;1.95;1.15;;;;;;;;;;5099943;28;20385;-79
2022/01/06 00:53:35;;;;;;;4.32;1.40;;;;;;;;;;5098898;28;20017;-81
2022/01/06 00:56:00;;;;;;;2.20;1.33;;;;;;;;;;5099623;28;20476;-80
2022/01/06 00:58:25;;;;;;;2.85;1.05;;;;;;;;;;5099776;28;20020;-80
2022/01/06 01:00:50;;;;;;;2.08;1.35;;;;;;;;;;5099574;28;20023;-80
2022/01/06 01:03:21;;;;;;;8.02;1.77;;;;;;;;;;5101820;28;20020;-80
2022/01/06 01:05:49;;;;;;;2.15;1.30;;;;;;;;;;5099315;28;20113;-79
2022/01/06 01:08:15;;;;;;;2.78;1.17;;;;;;;;;;5101473;28;20020;-79
2022/01/06 01:10:42;;;;;;;1.98;1.13;;;;;;;;;;5098653;28;20085;-79
2022/01/06 01:13:12;;;;;;;2.17;1.20;;;;;;;;;;5099698;28;20032;-78
2022/01/06 01:15:49;;;;;;;1.65;1.10;;;;;;;;;;5098637;28;20032;-78
2022/01/06 01:18:18;;;;;;;2.65;1.05;;;;;;;;;;5098490;28;20107;-77
2022/01/06 01:20:44;;;;;;;3.40;1.20;;;;;;;;;;5098899;28;20534;-78
2022/01/06 01:23:09;;;;;;;0.93;0.80;;;;;;;;;;5099181;28;20036;-78
2022/01/06 01:25:35;;;;;;;3.90;0.80;;;;;;;;;;5098601;28;20035;-78
2022/01/06 01:28:00;;;;;;;1.55;1.02;;;;;;;;;;5098696;28;20031;-78
2022/01/06 01:30:31;;;;;;;2.22;0.90;;;;;;;;;;5098439;28;20103;-78
2022/01/06 01:32:58;;;;;;;2.15;0.90;;;;;;;;;;5096682;28;20087;-78
2022/01/06 01:35:24;;;;;;;1.50;0.70;;;;;;;;;;5096700;28;20115;-78
2022/01/06 01:37:50;;;;;;;5.38;0.93;;;;;;;;;;5096101;28;20063;-79
2022/01/06 01:40:15;;;;;;;1.55;0.55;;;;;;;;;;5097572;28;20111;-78
2022/01/06 01:42:40;;;;;;;1.10;0.65;;;;;;;;;;5096777;28;20024;-77
2022/01/06 01:45:08;;;;;;;1.95;0.73;;;;;;;;;;5097151;28;20046;-78
2022/01/06 01:47:43;;;;;;;1.25;0.60;;;;;;;;;;5097219;28;20019;-76
2022/01/06 01:50:15;;;;;;;2.03;0.70;;;;;;;;;;5096742;28;20027;-76
2022/01/06 01:52:44;;;;;;;1.15;0.80;;;;;;;;;;5098065;28;20054;-78
2022/01/06 01:55:11;;;;;;;3.38;0.70;;;;;;;;;;5097459;28;20020;-78
2022/01/06 01:57:37;;;;;;;4.30;1.00;;;;;;;;;;5098433;28;20112;-78
2022/01/06 02:00:06;;;;;;;1.98;0.80;;;;;;;;;;5099217;28;20415;-79
2022/01/06 02:02:31;;;;;;;3.92;1.10;;;;;;;;;;5098165;28;20042;-77
2022/01/06 02:04:56;;;;;;;2.10;0.93;;;;;;;;;;5096880;28;20111;-79
2022/01/06 02:07:22;;;;;;;1.58;0.55;;;;;;;;;;5097057;28;20119;-78
2022/01/06 02:09:47;;;;;;;5.15;1.10;;;;;;;;;;5097447;28;20055;-77
2022/01/06 02:12:32;;;;;;;3.50;1.10;;;;;;;;;;5096928;28;20034;-79
2022/01/06 02:14:58;;;;;;;4.03;1.10;;;;;;;;;;5096896;28;20045;-79
2022/01/06 02:17:23;;;;;;;2.28;0.93;;;;;;;;;;5095700;28;20427;-79
2022/01/06 02:20:04;;;;;;;3.80;0.98;;;;;;;;;;5099482;28;20054;-78
2022/01/06 02:22:29;;;;;;;2.63;0.93;;;;;;;;;;5110904;28;20077;-78
2022/01/06 02:24:55;;;;;;;6.63;1.20;;;;;;;;;;5113296;28;20028;-78
2022/01/06 02:27:21;;;;;;;2.08;0.70;;;;;;;;;;5102184;28;20020;-79
2022/01/06 02:29:51;;;;;;;6.95;1.00;;;;;;;;;;5096472;28;20477;-78
2022/01/06 02:32:19;;;;;;;3.63;1.10;;;;;;;;;;5095767;28;20385;-79
2022/01/06 02:34:44;;;;;;;5.20;1.08;;;;;;;;;;5095126;28;20457;-78
2022/01/06 02:37:11;;;;;;;6.65;1.30;;;;;;;;;;5097288;28;20032;-80
2022/01/06 02:39:36;;;;;;;4.93;1.05;;;;;;;;;;5097318;28;20077;-79
2022/01/06 02:42:03;;;;;;;2.65;0.93;;;;;;;;;;5096890;28;20024;-80
2022/01/06 02:44:28;;;;;;;4.50;0.95;;;;;;;;;;5095077;28;20081;-79
2022/01/06 02:46:54;;;;;;;3.80;1.10;;;;;;;;;;5097475;28;20477;-79
2022/01/06 02:49:19;;;;;;;2.97;0.95;;;;;;;;;;5096923;28;20420;-79
2022/01/06 02:51:44;;;;;;;4.22;0.80;;;;;;;;;;5096920;28;20393;-80
2022/01/06 02:54:11;;;;;;;2.13;0.82;;;;;;;;;;5095829;28;20089;-78
2022/01/06 02:56:38;;;;;;;6.40;1.20;;;;;;;;;;5095288;28;20023;-78
2022/01/06 02:59:04;;;;;;;2.50;1.00;;;;;;;;;;5097078;28;20016;-79
2022/01/06 03:01:29;;;;;;;7.82;0.95;;;;;;;;;;5096464;28;20040;-78
2022/01/06 03:03:54;;;;;;;4.95;0.98;;;;;;;;;;5097357;28;20504;-77
2022/01/06 03:06:20;;;;;;;1.67;0.70;;;;;;;;;;5096817;28;20023;-78
2022/01/06 03:08:45;;;;;;;3.15;0.70;;;;;;;;;;5097065;28;20035;-79
2022/01/06 03:11:10;;;;;;;2.97;0.70;;;;;;;;;;5097969;28;20020;-80
2022/01/06 03:13:36;;;;;;;3.10;0.90;;;;;;;;;;5097531;28;20126;-79
2022/01/06 03:16:02;;;;;;;3.22;0.73;;;;;;;;;;5097183;28;20016;-79
2022/01/06 03:18:28;;;;;;;3.70;1.08;;;;;;;;;;5097873;28;20020;-79
2022/01/06 03:20:53;;;;;;;5.65;0.95;;;;;;;;;;5096724;28;20043;-77
2022/01/06 03:23:19;;;;;;;5.00;1.00;;;;;;;;;;5097061;28;20415;-79
2022/01/06 03:25:45;;;;;;;4.55;1.10;;;;;;;;;;5096834;28;20474;-79
2022/01/06 03:28:10;;;;;;;5.38;1.13;;;;;;;;;;5095181;28;20020;-78
2022/01/06 03:30:35;;;;;;;6.93;0.98;;;;;;;;;;5097545;28;20059;-79
2022/01/06 03:33:00;;;;;;;3.03;0.90;;;;;;;;;;5096330;28;20389;-79
2022/01/06 03:35:26;;;;;;;5.22;1.20;;;;;;;;;;5098052;28;20024;-79
2022/01/06 03:37:52;;;;;;;3.47;0.90;;;;;;;;;;5097411;28;20099;-78
2022/01/06 03:40:17;;;;;;;3.53;0.82;;;;;;;;;;5097484;28;20619;-79
2022/01/06 03:42:42;;;;;;;10.32;1.23;;;;;;;;;;5097542;28;20035;-79
2022/01/06 03:45:11;;;;;;;7.07;1.17;;;;;;;;;;5097116;28;20066;-78
2022/01/06 03:47:36;;;;;;;5.57;1.05;;;;;;;;;;5096911;28;20024;-79
2022/01/06 03:50:03;;;;;;;6.60;1.27;;;;;;;;;;5096886;28;20055;-79
2022/01/06 03:52:28;;;;;;;3.80;1.17;;;;;;;;;;5096851;28;20400;-79
2022/01/06 03:54:54;;;;;;;8.10;1.20;;;;;;;;;;5095898;28;20103;-79
2022/01/06 03:57:19;;;;;;;5.10;1.58;;;;;;;;;;5095286;28;20039;-80
2022/01/06 03:59:44;;;;;;;4.25;1.17;;;;;;;;;;5095093;28;20099;-79
2022/01/06 04:02:09;;;;;;;4.55;1.20;;;;;;;;;;5097493;28;20481;-79
2022/01/06 04:04:35;;;;;;;7.43;1.52;;;;;;;;;;5096934;28;20027;-78
2022/01/06 04:07:00;;;;;;;3.40;1.20;;;;;;;;;;5098509;28;20041;-78
2022/01/06 04:09:25;;;;;;;8.70;1.50;;;;;;;;;;5101540;28;20020;-78
2022/01/06 04:11:50;;;;;;;10.02;1.30;;;;;;;;;;5099429;28;20438;-78
2022/01/06 04:14:16;;;;;;;4.05;1.10;;;;;;;;;;5099648;28;20454;-78
2022/01/06 04:16:41;;;;;;;4.22;1.30;;;;;;;;;;5099576;28;20042;-77
2022/01/06 04:19:07;;;;;;;3.67;1.02;;;;;;;;;;5099272;28;20016;-78
2022/01/06 04:21:33;;;;;;;2.88;0.90;;;;;;;;;;5100180;28;20537;-78
2022/01/06 04:23:58;;;;;;;2.33;0.50;;;;;;;;;;5098808;28;20107;-77
2022/01/06 04:26:24;;;;;;;2.42;0.80;;;;;;;;;;5100527;28;20016;-79
2022/01/06 04:28:49;;;;;;;1.70;0.80;;;;;;;;;;5101266;28;20469;-79
2022/01/06 04:31:14;;;;;;;3.08;0.88;;;;;;;;;;5101716;28;20028;-79
2022/01/06 04:33:39;;;;;;;5.07;0.98;;;;;;;;;;5101137;28;20031;-80
2022/01/06 04:36:05;;;;;;;2.90;1.00;;;;;;;;;;5099986;28;20039;-76
2022/01/06 04:38:31;;;;;;;4.68;0.90;;;;;;;;;;5098643;28;20016;-79
2022/01/06 04:40:57;;;;;;;1.13;0.68;;;;;;;;;;5099767;28;20455;-79
2022/01/06 04:43:23;;;;;;;3.58;0.90;;;;;;;;;;5098866;28;20020;-76
2022/01/06 04:45:48;;;;;;;1.77;0.90;;;;;;;;;;5098069;28;20020;-78
2022/01/06 04:48:14;;;;;;;2.92;1.15;;;;;;;;;;5099249;28;20020;-77
2022/01/06 04:50:39;;;;;;;3.08;1.30;;;;;;;;;;5099764;28;20028;-78
2022/01/06 04:53:04;;;;;;;3.53;1.25;;;;;;;;;;5099565;28;20103;-78
2022/01/06 04:55:29;;;;;;;2.13;0.93;;;;;;;;;;5098922;28;20047;-78
2022/01/06 04:57:55;;;;;;;3.53;1.13;;;;;;;;;;5097940;28;20028;-79
2022/01/06 05:00:20;;;;;;;4.22;1.35;;;;;;;;;;5099431;28;20548;-78
2022/01/06 05:02:46;;;;;;;2.67;1.20;;;;;;;;;;5097719;28;20038;-77
2022/01/06 05:05:13;;;;;;;5.18;1.10;;;;;;;;;;5098385;28;20028;-77
2022/01/06 05:07:40;;;;;;;3.92;1.40;;;;;;;;;;5098396;28;20032;-78
2022/01/06 05:10:06;;;;;;;2.63;0.95;;;;;;;;;;5100409;28;20102;-78
2022/01/06 05:12:31;;;;;;;2.00;1.05;;;;;;;;;;5098319;28;20439;-77
2022/01/06 05:14:56;;;;;;;3.20;1.13;;;;;;;;;;5099579;28;20054;-78
2022/01/06 05:17:22;;;;;;;5.30;1.17;;;;;;;;;;5097414;28;20024;-79
2022/01/06 05:19:47;;;;;;;4.95;1.40;;;;;;;;;;5098450;28;20077;-77
2022/01/06 05:22:12;;;;;;;2.17;1.38;;;;;;;;;;5098541;28;20503;-79
2022/01/06 05:24:38;;;;;;;2.78;1.45;;;;;;;;;;5097905;28;20067;-78
2022/01/06 05:27:04;;;;;;;4.05;1.45;;;;;;;;;;5098236;28;20024;-78
2022/01/06 05:29:30;;;;;;;3.92;1.38;;;;;;;;;;5097711;28;20016;-78
2022/01/06 05:31:56;;;;;;;4.70;1.30;;;;;;;;;;5096062;28;20046;-78
2022/01/06 05:34:21;;;;;;;5.35;1.40;;;;;;;;;;5097692;28;20435;-78
2022/01/06 05:36:46;;;;;;;3.35;1.38;;;;;;;;;;5096566;28;20051;-79
2022/01/06 05:39:11;;;;;;;2.17;0.82;;;;;;;;;;5097099;28;20043;-79
2022/01/06 05:41:36;;;;;;;2.17;1.15;;;;;;;;;;5097251;28;20393;-79
2022/01/06 05:44:02;;;;;;;2.40;1.13;;;;;;;;;;5099652;28;20466;-79
2022/01/06 05:46:27;;;;;;;3.05;0.98;;;;;;;;;;5097518;28;20024;-78
2022/01/06 05:48:53;;;;;;;1.80;0.80;;;;;;;;;;5096558;28;20027;-77
2022/01/06 05:51:18;;;;;;;3.88;0.88;;;;;;;;;;5096008;28;20027;-77
2022/01/06 05:53:44;;;;;;;1.20;0.75;;;;;;;;;;5097708;28;20027;-79
2022/01/06 05:56:09;;;;;;;3.25;1.13;;;;;;;;;;5096070;28;20031;-79
2022/01/06 05:58:36;;;;;;;4.05;1.10;;;;;;;;;;5095829;28;20020;-78
2022/01/06 06:01:02;;;;;;;5.30;1.00;;;;;;;;;;5097184;28;20035;-78
2022/01/06 06:03:27;;;;;;;1.40;0.70;;;;;;;;;;5095388;28;20050;-78
2022/01/06 06:05:56;;;;;;;7.22;1.02;;;;;;;;;;5096977;28;20034;-79
2022/01/06 06:08:21;;;;;;;1.05;0.73;;;;;;;;;;5096497;28;20031;-79
2022/01/06 06:10:47;;;;;;;3.00;0.88;;;;;;;;;;5096983;28;20036;-79
2022/01/06 06:13:12;;;;;;;6.55;1.00;;;;;;;;;;5096756;28;20024;-80
2022/01/06 06:15:37;;;;;;;1.70;1.00;;;;;;;;;;5095728;28;20028;-77
2022/01/06 06:18:09;;;;;;;5.85;1.35;;;;;;;;;;5094977;28;20024;-79
2022/01/06 06:20:35;;;;;;;2.10;1.00;;;;;;;;;;5095078;28;20062;-77
2022/01/06 06:23:00;;;;;;;2.03;0.70;;;;;;;;;;5096249;28;20028;-78
2022/01/06 06:25:25;;;;;;;5.60;1.23;;;;;;;;;;5094459;28;20024;-80
2022/01/06 06:27:51;;;;;;;4.88;1.20;;;;;;;;;;5096122;28;20027;-78
2022/01/06 06:30:18;;;;;;;4.65;1.10;;;;;;;;;;5096262;28;20020;-78
2022/01/06 06:32:45;;;;;;;4.43;1.15;;;;;;;;;;5096537;28;20485;-78
2022/01/06 06:35:10;;;;;;;2.38;1.17;;;;;;;;;;5097305;28;20035;-81
2022/01/06 06:37:35;;;;;;;1.88;0.90;;;;;;;;;;5096897;28;20020;-80
2022/01/06 06:40:01;;;;;;;2.30;1.20;;;;;;;;;;5097160;28;20032;-80
2022/01/06 06:42:28;;;;;;;5.28;1.45;;;;;;;;;;5096808;28;20031;-80
2022/01/06 06:44:54;;;;;;;3.65;1.67;;;;;;;;;;5096705;28;20106;-79
2022/01/06 06:47:19;;;;;;;1.75;0.93;;;;;;;;;;5095308;28;20059;-79
2022/01/06 06:49:44;;;;;;;5.97;0.98;;;;;;;;;;5095314;28;20149;-78
2022/01/06 06:52:09;;;;;;;2.20;1.00;;;;;;;;;;5094206;28;20054;-80
2022/01/06 06:54:35;;;;;;;1.85;0.82;;;;;;;;;;5095800;28;20020;-79
2022/01/06 06:57:00;;;;;;;1.63;0.80;;;;;;;;;;5096076;28;20023;-80
2022/01/06 06:59:25;;;;;;;1.58;0.80;;;;;;;;;;5096066;28;20477;-79
2022/01/06 07:01:51;;;;;;;4.97;0.90;;;;;;;;;;5095364;28;20028;-80
2022/01/06 07:04:16;;;;;;;4.68;0.85;;;;;;;;;;5095847;28;20020;-80
2022/01/06 07:06:41;;;;;;;6.60;1.02;;;;;;;;;;5094614;28;20090;-80
2022/01/06 07:09:06;;;;;;;2.20;0.95;;;;;;;;;;5096048;28;20024;-79
2022/01/06 07:11:32;;;;;;;3.60;1.10;;;;;;;;;;5094591;28;20051;-80
2022/01/06 07:13:57;;;;;;;1.73;0.82;;;;;;;;;;5094932;28;20102;-79
2022/01/06 07:16:23;;;;;;;2.60;0.80;;;;;;;;;;5096239;28;20381;-78
2022/01/06 07:18:48;;;;;;;2.42;0.93;;;;;;;;;;5095125;28;20063;-79
2022/01/06 07:21:13;;;;;;;6.13;1.00;;;;;;;;;;5094811;28;20024;-79
2022/01/06 07:23:39;;;;;;;7.93;1.17;;;;;;;;;;5095263;28;20034;-80
2022/01/06 07:26:04;;;;;;;2.95;1.00;;;;;;;;;;5096388;28;20405;-78
2022/01/06 07:28:29;;;;;;;5.03;1.02;;;;;;;;;;5096297;28;20028;-79
2022/01/06 07:30:54;;;;;;;6.32;1.10;;;;;;;;;;5096759;28;20020;-79
2022/01/06 07:33:19;;;;;;;3.95;1.52;;;;;;;;;;5095252;28;20427;-79
2022/01/06 07:35:45;;;;;;;3.70;1.25;;;;;;;;;;5096308;28;20074;-78
2022/01/06 07:38:10;;;;;;;3.92;1.10;;;;;;;;;;5097284;28;20028;-78
2022/01/06 07:40:35;;;;;;;5.63;0.75;;;;;;;;;;5098922;28;20020;-78
2022/01/06 07:43:00;;;;;;;4.25;0.90;;;;;;;;;;5099421;28;20028;-79
2022/01/06 07:45:26;;;;;;;5.90;1.23;;;;;;;;;;5101422;28;20023;-79
2022/01/06 07:47:59;;;;;;;1.40;0.77;;;;;;;;;;5101041;28;20051;-79
2022/01/06 07:50:29;;;;;;;;;;;;;;;;;;5102013;28;20099;-79
2022/01/06 07:52:55;;;;;;;1.00;0.60;;;;;;;;;;5099639;28;19908;-79
2022/01/06 07:55:20;;;;;;;3.97;0.90;;;;;;;;;;5101358;28;20429;-80
2022/01/06 07:57:45;;;;;;;3.10;1.00;;;;;;;;;;5101064;28;20142;-78
2022/01/06 08:00:11;;;;;;;9.10;1.00;;;;;;;;;;5100467;28;20153;-79
2022/01/06 08:02:36;;;;;;;4.90;1.30;;;;;;;;;;5101495;28;20028;-79
2022/01/06 08:05:02;;;;;;;1.65;0.98;;;;;;;;;;5099079;28;20024;-79
2022/01/06 08:07:27;;;;;;;4.20;1.55;;;;;;;;;;5099802;28;20485;-79
2022/01/06 08:09:52;;;;;;;5.35;1.30;;;;;;;;;;5100890;28;20085;-79
2022/01/06 08:12:17;;;;;;;6.63;1.30;;;;;;;;;;5100730;28;20028;-78
2022/01/06 08:14:43;;;;;;;5.65;0.93;;;;;;;;;;5099065;28;20066;-79
2022/01/06 08:17:08;;;;;;;3.08;1.27;;;;;;;;;;5099892;28;20037;-79
2022/01/06 08:19:33;;;;;;;2.92;0.80;;;;;;;;;;5100014;28;20031;-79
2022/01/06 08:21:59;;;;;;;2.97;1.00;;;;;;;;;;5099483;28;20024;-79
2022/01/06 08:24:24;;;;;;;4.80;1.23;;;;;;;;;;5100329;28;20533;-80
2022/01/06 08:26:49;;;;;;;6.55;1.33;;;;;;;;;;5098892;28;20575;-79
2022/01/06 08:29:14;;;;;;;5.10;1.00;;;;;;;;;;5098727;28;20016;-80
2022/01/06 08:31:39;;;;;;;2.30;0.90;;;;;;;;;;5100238;28;20531;-79
2022/01/06 08:34:05;;;;;;;5.20;1.02;;;;;;;;;;5100782;28;20024;-80
2022/01/06 08:36:30;;;;;;;3.08;0.77;;;;;;;;;;5099731;28;20059;-79
2022/01/06 08:38:55;;;;;;;4.40;0.88;;;;;;;;;;5100003;28;20074;-78
2022/01/06 08:41:21;;;;;;;5.80;1.00;;;;;;;;;;5100667;28;20145;-80
2022/01/06 08:43:46;;;;;;;2.65;1.00;;;;;;;;;;5098703;28;20020;-80
2022/01/06 08:46:11;;;;;;;4.20;0.88;;;;;;;;;;5100863;28;20051;-80
2022/01/06 08:48:36;;;;;;;5.38;0.93;;;;;;;;;;5101353;28;20023;-80
2022/01/06 08:51:02;;;;;;;4.20;0.80;;;;;;;;;;5100041;28;20046;-80
2022/01/06 08:53:27;;;;;;;5.07;1.00;;;;;;;;;;5097601;28;20032;-79
2022/01/06 08:55:52;;;;;;;2.22;0.77;;;;;;;;;;5100406;28;20473;-79
2022/01/06 08:58:17;;;;;;;6.78;1.10;;;;;;;;;;5099978;28;20508;-79
2022/01/06 09:00:44;;;;;;;4.78;0.73;;;;;;;;;;5099637;28;20026;-80
2022/01/06 09:03:09;;;;;;;3.40;0.90;;;;;;;;;;5100758;28;20031;-78
2022/01/06 09:05:35;;;;;;;3.20;0.93;;;;;;;;;;5098488;28;20024;-79
2022/01/06 09:08:01;;;;;;;5.57;1.08;;;;;;;;;;5099161;28;20055;-80
2022/01/06 09:10:30;;;;;;;3.55;0.90;;;;;;;;;;5098832;28;20072;-79
2022/01/06 09:12:56;;;;;;;5.97;1.00;;;;;;;;;;5100305;28;20019;-80
2022/01/06 09:15:21;;;;;;;4.53;1.00;;;;;;;;;;5099531;28;20046;-79
2022/01/06 09:17:47;;;;;;;2.58;0.80;;;;;;;;;;5099318;28;20012;-79
2022/01/06 09:20:13;;;;;;;7.10;1.10;;;;;;;;;;5099180;28;20024;-79
2022/01/06 09:22:40;;;;;;;2.10;0.80;;;;;;;;;;5099540;28;20493;-79
2022/01/06 09:25:05;;;;;;;3.05;0.95;;;;;;;;;;5099599;28;20028;-79
2022/01/06 09:27:30;;;;;;;5.53;0.95;;;;;;;;;;5099107;28;20046;-80
2022/01/06 09:29:56;;;;;;;6.78;1.48;;;;;;;;;;5099101;28;20495;-79
2022/01/06 09:32:22;;;;;;;3.00;0.75;;;;;;;;;;5098133;28;20077;-80
2022/01/06 09:34:47;;;;;;;5.70;0.88;;;;;;;;;;5098906;28;20122;-79
2022/01/06 09:37:12;;;;;;;6.03;1.00;;;;;;;;;;5098952;28;20028;-79
2022/01/06 09:39:38;;;;;;;1.42;0.77;;;;;;;;;;5099454;28;20035;-79
2022/01/06 09:42:04;;;;;;;6.50;1.10;;;;;;;;;;5098816;28;20453;-79
2022/01/06 09:44:30;;;;;;;5.47;1.20;;;;;;;;;;5099525;28;20020;-80
2022/01/06 09:46:56;;;;;;;5.95;1.00;;;;;;;;;;5098259;28;20042;-80
2022/01/06 09:49:22;;;;;;;2.15;0.95;;;;;;;;;;5098077;28;20468;-80
2022/01/06 09:51:47;;;;;;;5.82;1.02;;;;;;;;;;5096776;28;20514;-80
2022/01/06 09:54:13;;;;;;;3.53;1.15;;;;;;;;;;5096636;28;20020;-79
2022/01/06 09:56:38;;;;;;;3.92;0.98;;;;;;;;;;5098822;28;20056;-79
2022/01/06 09:59:04;;;;;;;8.10;1.30;;;;;;;;;;5099385;28;20083;-80
2022/01/06 10:01:30;;;;;;;5.13;1.20;;;;;;;;;;5099376;28;20039;-80
2022/01/06 10:03:55;;;;;;;6.55;1.25;;;;;;;;;;5099401;28;20141;-80
2022/01/06 10:06:23;;;;;;;5.40;1.40;;;;;;;;;;5099167;28;20469;-79
2022/01/06 10:08:59;;;;;;;2.97;1.02;;;;;;;;;;5097144;28;20045;-80
2022/01/06 10:11:27;;;;;;;3.40;0.95;;;;;;;;;;5097451;28;20477;-79
2022/01/06 10:14:19;;;;;;;3.20;1.20;;;;;;;;;;5096306;28;20491;-79
2022/01/06 10:16:48;;;;;;;3.33;1.00;;;;;;;;;;5098363;28;20129;-80
2022/01/06 10:19:15;;;;;;;2.97;1.05;;;;;;;;;;5097135;28;20401;-79
2022/01/06 10:21:49;;;;;;;3.25;1.25;;;;;;;;;;5098186;28;20023;-80
2022/01/06 10:24:22;;;;;;;9.52;1.30;;;;;;;;;;5097071;28;20415;-79
2022/01/06 10:27:06;;;;;;;7.13;1.10;;;;;;;;;;5096307;28;20030;-79
2022/01/06 10:29:40;;;;;;;4.32;1.20;;;;;;;;;;5095278;28;20048;-79
2022/01/06 10:32:11;;;;;;;1.58;0.80;;;;;;;;;;5096540;28;20024;-80
2022/01/06 10:34:40;;;;;;;17.02;1.13;;;;;;;;;;5095827;28;20059;-79
2022/01/06 10:37:18;;;;;;;5.03;1.15;;;;;;;;;;5098231;28;20485;-79
2022/01/06 10:39:45;;;;;;;5.53;1.27;;;;;;;;;;5097577;28;20107;-80
2022/01/06 10:42:11;;;;;;;4.63;1.15;;;;;;;;;;5097363;28;20024;-80
2022/01/06 10:44:51;;;;;;;3.75;1.27;;;;;;;;;;5098239;28;20034;-78
2022/01/06 10:47:41;;;;;;;1.75;0.98;;;;;;;;;;5098206;28;20016;-79
2022/01/06 10:50:12;;;;;;;1.20;0.68;;;;;;;;;;5098094;28;20027;-79
2022/01/06 10:52:40;;;;;;;3.60;0.98;;;;;;;;;;5097293;28;20020;-79
2022/01/06 10:55:12;;;;;;;5.43;0.82;;;;;;;;;;5096992;28;20024;-78
2022/01/06 10:57:52;;;;;;;1.90;0.98;;;;;;;;;;5097136;28;20040;-79
2022/01/06 11:00:18;;;;;;;3.63;1.05;;;;;;;;;;5114591;28;20028;-77
2022/01/06 11:02:44;;;;;;;7.88;1.05;;;;;;;;;;5114370;28;20028;-77
2022/01/06 11:05:09;;;;;;;3.22;1.02;;;;;;;;;;5109051;28;20042;-80
2022/01/06 11:07:35;;;;;;;3.97;1.05;;;;;;;;;;5100057;28;20039;-79
2022/01/06 11:10:02;;;;;;;3.88;1.33;;;;;;;;;;5097630;28;20024;-79
2022/01/06 11:12:29;;;;;;;3.28;1.20;;;;;;;;;;5096180;28;20028;-80
2022/01/06 11:14:55;;;;;;;4.07;1.05;;;;;;;;;;5095873;28;20121;-81
2022/01/06 11:17:23;;;;;;;4.80;1.20;;;;;;;;;;5094548;28;20388;-80
2022/01/06 11:19:49;;;;;;;3.25;1.23;;;;;;;;;;5095960;28;20107;-79
2022/01/06 11:22:14;;;;;;;3.53;1.00;;;;;;;;;;5096033;28;20031;-79
2022/01/06 11:24:50;;;;;;;5.75;1.23;;;;;;;;;;5097080;28;20024;-79
2022/01/06 11:27:15;;;;;;;5.13;1.15;;;;;;;;;;5097087;28;20024;-79
2022/01/06 11:29:43;;;;;;;2.50;1.20;;;;;;;;;;5095261;28;20071;-79
2022/01/06 11:32:23;;;;;;;3.72;1.23;;;;;;;;;;5094349;28;20023;-79
2022/01/06 11:35:08;;;;;;;4.93;1.52;;;;;;;;;;5094258;28;20392;-80
2022/01/06 11:37:48;;;;;;;3.28;1.38;;;;;;;;;;5095711;28;20462;-81
2022/01/06 11:40:16;;;;;;;2.03;1.20;;;;;;;;;;5094068;28;20020;-81
2022/01/06 11:42:55;;;;;;;2.90;1.38;;;;;;;;;;5095932;28;20024;-79
2022/01/06 11:45:21;;;;;;;2.92;1.30;;;;;;;;;;5097030;28;20028;-79
2022/01/06 11:47:47;;;;;;;3.80;1.33;;;;;;;;;;5096146;28;20107;-80
2022/01/06 11:50:24;;;;;;;4.00;1.50;;;;;;;;;;5094378;28;20020;-79
2022/01/06 11:52:56;;;;;;;4.18;1.25;;;;;;;;;;5096104;28;20048;-79
2022/01/06 11:55:23;;;;;;;4.93;1.48;;;;;;;;;;5096261;28;20063;-79
2022/01/06 11:57:49;;;;;;;2.55;0.98;;;;;;;;;;5094909;28;20028;-79
2022/01/06 12:00:20;;;;;;;2.63;1.17;;;;;;;;;;5096051;28;20028;-79
2022/01/06 12:02:59;;;;;;;2.40;1.17;;;;;;;;;;5096653;28;20078;-79
2022/01/06 12:05:25;;;;;;;5.25;1.60;;;;;;;;;;5095889;28;20538;-79
2022/01/06 12:07:52;;;;;;;2.42;1.20;;;;;;;;;;5096083;28;20028;-80
2022/01/06 12:10:18;;;;;;;2.97;1.02;;;;;;;;;;5096498;28;20023;-81
2022/01/06 12:12:43;;;;;;;10.35;1.60;;;;;;;;;;5097813;28;20028;-79
2022/01/06 12:15:11;;;;;;;4.35;1.00;;;;;;;;;;5096693;28;20032;-79
2022/01/06 12:17:37;;;;;;;4.05;1.20;;;;;;;;;;5096085;28;20060;-80
2022/01/06 12:20:06;;;;;;;2.08;0.80;;;;;;;;;;5096625;28;20028;-80
2022/01/06 12:22:31;;;;;;;4.30;1.10;;;;;;;;;;5097619;28;20036;-80
2022/01/06 12:25:04;;;;;;;3.10;1.05;;;;;;;;;;5095611;28;20032;-80
2022/01/06 12:27:30;;;;;;;4.30;1.13;;;;;;;;;;5097500;28;20027;-80
2022/01/06 12:29:56;;;;;;;4.43;1.25;;;;;;;;;;5099664;28;20257;-80
2022/01/06 12:32:22;;;;;;;1.52;0.70;;;;;;;;;;5098271;28;20028;-79
2022/01/06 12:34:54;;;;;;;3.50;0.85;;;;;;;;;;5099344;28;20036;-79
2022/01/06 12:37:27;;;;;;;1.75;1.00;;;;;;;;;;5099578;28;20081;-80
2022/01/06 12:39:53;;;;;;;6.82;1.00;;;;;;;;;;5098098;28;20413;-80
2022/01/06 12:42:19;;;;;;;5.88;1.02;;;;;;;;;;5099675;28;20032;-79
2022/01/06 12:44:44;;;;;;;3.05;1.00;;;;;;;;;;5099814;28;20094;-81
2022/01/06 12:47:09;;;;;;;3.33;1.10;;;;;;;;;;5099630;28;20024;-79
2022/01/06 12:49:34;;;;;;;4.30;1.05;;;;;;;;;;5098286;28;20397;-79
2022/01/06 12:52:01;;;;;;;3.40;0.98;;;;;;;;;;5100364;28;20026;-79
2022/01/06 12:54:30;;;;;;;6.75;1.50;;;;;;;;;;5100028;28;20047;-79
2022/01/06 12:57:00;;;;;;;3.65;1.10;;;;;;;;;;5099398;28;20024;-80
2022/01/06 12:59:34;;;;;;;4.90;0.90;;;;;;;;;;5099562;28;20020;-81
2022/01/06 13:02:02;;;;;;;1.95;0.77;;;;;;;;;;5099438;28;20051;-80
2022/01/06 13:04:31;;;;;;;3.40;1.40;;;;;;;;;;5099948;28;20024;-80
2022/01/06 13:07:01;;;;;;;1.92;0.90;;;;;;;;;;5100261;28;20031;-80
2022/01/06 13:09:30;;;;;;;4.38;1.20;;;;;;;;;;5097947;28;20145;-79
2022/01/06 13:11:57;;;;;;;3.53;0.82;;;;;;;;;;5099287;28;20121;-79
2022/01/06 13:14:36;;;;;;;5.18;1.05;;;;;;;;;;5098493;28;20051;-80
2022/01/06 13:17:18;;;;;;;4.05;1.10;;;;;;;;;;5097426;28;20496;-79
2022/01/06 13:20:00;;;;;;;2.72;1.00;;;;;;;;;;5098849;28;20020;-78
2022/01/06 13:22:37;;;;;;;6.70;1.70;;;;;;;;;;5098951;28;20585;-79
2022/01/06 13:25:12;;;;;;;2.00;1.00;;;;;;;;;;5099085;28;20031;-79
2022/01/06 13:27:37;;;;;;;6.15;1.35;;;;;;;;;;5099229;28;20020;-80
2022/01/06 13:30:04;;;;;;;4.03;1.30;;;;;;;;;;5098839;28;20030;-80
2022/01/06 13:32:30;;;;;;;2.42;1.10;;;;;;;;;;5096929;28;20024;-79
2022/01/06 13:35:04;;;;;;;3.10;1.05;;;;;;;;;;5098524;28;20024;-79
2022/01/06 13:37:31;;;;;;;6.82;1.13;;;;;;;;;;5099433;28;20024;-79
2022/01/06 13:40:05;;;;;;;3.63;1.23;;;;;;;;;;5098331;28;20499;-80
2022/01/06 13:42:38;;;;;;;3.40;1.27;;;;;;;;;;5098079;28;20640;-81
2022/01/06 13:45:34;;;;;;;2.03;1.05;;;;;;;;;;5098051;28;20476;-81
2022/01/06 13:48:09;;;;;;;4.22;0.95;;;;;;;;;;5097671;28;20044;-80
2022/01/06 13:53:25;;;;;;;1.73;1.08;;;;;;;;;;5098155;28;20063;-80
2022/01/06 13:55:56;;;;;;;2.88;0.88;;;;;;;;;;5098734;28;20040;-81
2022/01/06 13:58:21;;;;;;;3.83;1.27;;;;;;;;;;5098980;28;20031;-79
2022/01/06 14:00:46;;;;;;;3.55;1.10;;;;;;;;;;5097668;28;20057;-80
2022/01/06 14:03:11;;;;;;;2.00;1.00;;;;;;;;;;5097702;28;20019;-81
2022/01/06 14:05:37;;;;;;;2.30;1.00;;;;;;;;;;5098230;28;20028;-80
2022/01/06 14:08:02;;;;;;;2.95;1.00;;;;;;;;;;5098665;28;20032;-80
2022/01/06 14:10:27;;;;;;;3.72;0.93;;;;;;;;;;5098049;28;20020;-80
2022/01/06 14:12:54;;;;;;;2.75;0.98;;;;;;;;;;5099318;28;20426;-80
2022/01/06 14:15:19;;;;;;;5.03;1.17;;;;;;;;;;5099101;28;20039;-79
2022/01/06 14:17:45;;;;;;;3.10;1.10;;;;;;;;;;5099415;28;20051;-80
2022/01/06 14:20:10;;;;;;;4.35;1.30;;;;;;;;;;5099295;28;20028;-80
2022/01/06 14:22:36;;;;;;;2.95;1.17;;;;;;;;;;5098988;28;20053;-80
2022/01/06 14:25:01;;;;;;;3.47;1.10;;;;;;;;;;5099702;28;20087;-80
2022/01/06 14:27:26;;;;;;;6.82;1.20;;;;;;;;;;5097663;28;20024;-80
2022/01/06 14:29:51;;;;;;;5.88;1.10;;;;;;;;;;5099229;28;20445;-79
2022/01/06 14:32:17;;;;;;;4.28;1.42;;;;;;;;;;5099119;28;20553;-79
2022/01/06 14:34:42;;;;;;;2.97;1.00;;;;;;;;;;5099297;28;20027;-79
2022/01/06 14:37:08;;;;;;;5.13;1.17;;;;;;;;;;5098851;28;20024;-80
2022/01/06 14:39:33;;;;;;;3.03;1.10;;;;;;;;;;5098933;28;20024;-79
2022/01/06 14:41:58;;;;;;;4.05;1.10;;;;;;;;;;5098305;28;20471;-79
2022/01/06 14:44:23;;;;;;;5.50;1.40;;;;;;;;;;5098667;28;20020;-80
2022/01/06 14:46:49;;;;;;;2.80;1.20;;;;;;;;;;5098939;28;20492;-78
2022/01/06 14:49:14;;;;;;;5.63;1.40;;;;;;;;;;5098629;28;20409;-79
2022/01/06 14:51:39;;;;;;;4.82;1.30;;;;;;;;;;5097748;28;20035;-78
2022/01/06 14:54:05;;;;;;;3.90;1.40;;;;;;;;;;5098909;28;20378;-80